createdAt,value
2023-01-22T00:02:17.411Z,7.90
2023-01-22T00:04:44.952Z,8.07
2023-01-22T00:07:12.691Z,7.67
2023-01-22T00:09:40.128Z,7.90
2023-01-22T00:12:07.623Z,7.80
2023-01-22T00:14:36.905Z,7.03
2023-01-22T00:17:04.447Z,7.77
2023-01-22T00:19:31.945Z,7.60
2023-01-22T00:22:00.040Z,7.63
2023-01-22T00:24:28.435Z,8.07
2023-01-22T00:26:55.887Z,7.27
2023-01-22T00:29:23.592Z,7.90
2023-01-22T00:31:52.555Z,7.67
2023-01-22T00:34:20.174Z,7.97
2023-01-22T00:36:47.715Z,8.13
2023-01-22T00:39:16.317Z,8.03
2023-01-22T00:41:43.805Z,8.30
2023-01-22T00:44:11.273Z,8.80
2023-01-22T00:46:38.750Z,9.13
2023-01-22T00:49:07.580Z,9.07
2023-01-22T00:51:36.717Z,9.30
2023-01-22T00:54:04.231Z,10.00
2023-01-22T00:56:31.717Z,9.07
2023-01-22T00:58:59.181Z,9.47
2023-01-22T01:01:26.650Z,9.23
2023-01-22T01:03:54.147Z,9.03
2023-01-22T01:06:23.201Z,8.87
2023-01-22T01:08:51.019Z,8.77
2023-01-22T01:11:21.422Z,9.07
2023-01-22T01:13:49.289Z,8.50
2023-01-22T01:16:18.271Z,8.77
2023-01-22T01:18:46.793Z,9.27
2023-01-22T01:21:14.547Z,9.07
2023-01-22T01:23:43.669Z,8.50
2023-01-22T01:26:12.224Z,8.60
2023-01-22T01:28:40.459Z,8.87
2023-01-22T01:31:09.188Z,8.80
2023-01-22T01:33:36.750Z,9.30
2023-01-22T01:36:05.312Z,8.90
2023-01-22T01:38:32.951Z,9.17
2023-01-22T01:41:02.079Z,9.93
2023-01-22T01:43:29.527Z,8.73
2023-01-22T01:45:57.484Z,8.90
2023-01-22T01:48:27.468Z,9.10
2023-01-22T01:50:58.943Z,9.87
2023-01-22T01:53:26.550Z,9.30
2023-01-22T01:55:55.301Z,9.17
2023-01-22T01:58:25.426Z,9.27
2023-01-22T02:00:54.984Z,8.97
2023-01-22T02:03:22.773Z,8.87
2023-01-22T02:05:50.292Z,8.87
2023-01-22T02:08:18.436Z,8.97
2023-01-22T02:10:45.906Z,9.10
2023-01-22T02:13:16.725Z,8.90
2023-01-22T02:15:48.855Z,9.03
2023-01-22T02:18:16.293Z,9.67
2023-01-22T02:20:53.024Z,8.40
2023-01-22T02:23:20.465Z,8.50
2023-01-22T02:25:48.031Z,9.37
2023-01-22T02:28:15.961Z,10.07
2023-01-22T02:30:44.627Z,9.40
2023-01-22T02:33:13.402Z,8.50
2023-01-22T02:35:43.871Z,9.30
2023-01-22T02:38:14.134Z,9.00
2023-01-22T02:40:49.034Z,9.37
2023-01-22T02:43:19.298Z,8.67
2023-01-22T02:45:46.927Z,8.83
2023-01-22T02:48:14.564Z,8.90
2023-01-22T02:50:42.119Z,8.97
2023-01-22T02:53:09.655Z,9.10
2023-01-22T02:55:40.181Z,9.43
2023-01-22T02:58:07.939Z,9.10
2023-01-22T03:00:35.453Z,9.53
2023-01-22T03:03:07.779Z,9.13
2023-01-22T03:05:35.335Z,9.57
2023-01-22T03:08:05.095Z,8.50
2023-01-22T03:10:32.673Z,8.90
2023-01-22T03:13:21.350Z,9.67
2023-01-22T03:16:07.875Z,9.57
2023-01-22T03:18:52.870Z,9.17
2023-01-22T03:21:20.469Z,9.10
2023-01-22T03:23:49.374Z,9.83
2023-01-22T03:26:18.694Z,10.00
2023-01-22T03:28:48.256Z,10.20
2023-01-22T03:31:17.371Z,9.50
2023-01-22T03:33:45.578Z,9.60
2023-01-22T03:36:14.390Z,9.47
2023-01-22T03:38:48.220Z,9.73
2023-01-22T03:41:19.685Z,9.60
2023-01-22T03:43:50.248Z,9.93
2023-01-22T03:46:21.368Z,10.57
2023-01-22T03:48:53.866Z,9.70
2023-01-22T03:51:21.776Z,9.97
2023-01-22T03:53:50.532Z,10.17
2023-01-22T03:56:19.374Z,10.60
2023-01-22T03:58:47.174Z,10.23
2023-01-22T04:01:17.541Z,10.37
2023-01-22T04:03:45.340Z,10.00
2023-01-22T04:06:13.656Z,9.30
2023-01-22T04:08:42.179Z,10.17
2023-01-22T04:11:10.727Z,10.57
2023-01-22T04:13:39.302Z,9.40
2023-01-22T04:16:07.656Z,9.50
2023-01-22T04:18:55.508Z,9.83
2023-01-22T04:21:36.729Z,9.60
2023-01-22T04:24:06.929Z,10.37
2023-01-22T04:26:34.627Z,10.50
2023-01-22T04:29:04.406Z,10.80
2023-01-22T04:31:32.268Z,11.13
2023-01-22T04:34:21.705Z,11.03
2023-01-22T04:37:17.387Z,10.77
2023-01-22T04:39:45.617Z,10.67
2023-01-22T04:42:13.401Z,11.13
2023-01-22T04:44:40.867Z,10.77
2023-01-22T04:47:09.193Z,11.10
2023-01-22T04:49:39.812Z,10.80
2023-01-22T04:52:10.063Z,11.83
2023-01-22T04:54:38.058Z,11.63
2023-01-22T04:57:05.812Z,10.90
2023-01-22T04:59:33.308Z,10.90
2023-01-22T05:02:00.832Z,11.03
2023-01-22T05:04:30.303Z,11.17
2023-01-22T05:06:59.132Z,11.13
2023-01-22T05:09:27.148Z,11.40
2023-01-22T05:11:58.840Z,10.70
2023-01-22T05:14:27.628Z,10.50
2023-01-22T05:16:55.125Z,10.77
2023-01-22T05:19:22.557Z,11.67
2023-01-22T05:21:50.199Z,11.80
2023-01-22T05:24:20.337Z,11.67
2023-01-22T05:26:47.774Z,11.17
2023-01-22T05:29:19.903Z,11.17
2023-01-22T05:32:16.732Z,11.03
2023-01-22T05:34:53.738Z,10.97
2023-01-22T05:37:21.657Z,11.07
2023-01-22T05:39:50.453Z,11.17
2023-01-22T05:42:18.736Z,11.63
2023-01-22T05:44:48.946Z,11.67
2023-01-22T05:47:19.565Z,11.53
2023-01-22T05:50:05.820Z,11.23
2023-01-22T05:52:33.531Z,10.67
2023-01-22T05:55:03.263Z,11.53
2023-01-22T05:57:37.376Z,11.03
2023-01-22T06:00:06.517Z,10.97
2023-01-22T06:02:44.054Z,12.07
2023-01-22T06:05:14.219Z,11.27
2023-01-22T06:07:42.208Z,11.27
2023-01-22T06:10:11.424Z,11.60
2023-01-22T06:12:45.363Z,11.60
2023-01-22T06:15:13.062Z,11.53
2023-01-22T06:17:45.528Z,11.23
2023-01-22T06:20:15.076Z,11.37
2023-01-22T06:22:42.667Z,11.80
2023-01-22T06:25:12.315Z,11.37
2023-01-22T06:28:03.450Z,11.73
2023-01-22T06:30:33.148Z,11.70
2023-01-22T06:33:03.432Z,11.97
2023-01-22T06:35:30.917Z,12.20
2023-01-22T06:37:58.379Z,11.00
2023-01-22T06:40:27.340Z,11.33
2023-01-22T06:42:54.933Z,11.73
2023-01-22T06:45:22.635Z,11.83
2023-01-22T06:47:53.991Z,11.83
2023-01-22T06:50:21.454Z,12.67
2023-01-22T06:52:48.954Z,12.20
2023-01-22T06:55:16.721Z,12.20
2023-01-22T06:57:45.817Z,12.67
2023-01-22T07:00:13.966Z,12.83
2023-01-22T07:02:41.422Z,12.37
2023-01-22T07:05:09.193Z,13.07
2023-01-22T07:07:36.654Z,12.90
2023-01-22T07:10:04.271Z,12.87
2023-01-22T07:12:31.752Z,11.80
2023-01-22T07:15:00.582Z,13.63
2023-01-22T07:17:28.650Z,12.60
2023-01-22T07:19:56.116Z,13.93
2023-01-22T07:22:23.544Z,12.70
2023-01-22T07:24:51.016Z,13.07
2023-01-22T07:27:18.471Z,13.20
2023-01-22T07:29:47.476Z,11.37
2023-01-22T07:32:16.319Z,13.43
2023-01-22T07:34:43.765Z,12.47
2023-01-22T07:37:11.218Z,13.00
2023-01-22T07:39:38.644Z,13.57
2023-01-22T07:42:06.147Z,13.30
2023-01-22T07:44:33.644Z,13.00
2023-01-22T07:47:01.140Z,13.63
2023-01-22T07:49:29.982Z,13.73
2023-01-22T07:51:57.448Z,12.50
2023-01-22T07:54:24.852Z,13.60
2023-01-22T07:56:52.399Z,13.37
2023-01-22T07:59:19.839Z,14.13
2023-01-22T08:01:47.426Z,13.07
2023-01-22T08:04:14.872Z,12.80
2023-01-22T08:06:43.717Z,13.33
2023-01-22T08:09:11.168Z,13.50
2023-01-22T08:11:38.593Z,12.90
2023-01-22T08:14:06.025Z,13.83
2023-01-22T08:16:33.583Z,13.27
2023-01-22T08:19:01.016Z,12.60
2023-01-22T08:21:28.479Z,11.60
2023-01-22T08:23:57.273Z,11.97
2023-01-22T08:26:24.698Z,10.73
2023-01-22T08:28:52.164Z,11.70
2023-01-22T08:31:27.777Z,11.87
2023-01-22T08:33:55.945Z,10.47
2023-01-22T08:36:23.372Z,11.77
2023-01-22T08:38:50.804Z,11.20
2023-01-22T08:41:19.604Z,10.80
2023-01-22T08:43:47.065Z,10.93
2023-01-22T08:46:14.594Z,12.10
2023-01-22T08:48:44.019Z,10.63
2023-01-22T08:51:11.793Z,12.20
2023-01-22T08:53:39.313Z,11.10
2023-01-22T08:56:07.341Z,12.40
2023-01-22T08:58:36.096Z,11.13
2023-01-22T09:01:03.701Z,10.87
2023-01-22T09:03:31.236Z,12.00
2023-01-22T09:05:58.823Z,11.10
2023-01-22T09:08:26.420Z,11.50
2023-01-22T09:10:53.871Z,11.73
2023-01-22T09:13:21.303Z,11.50
2023-01-22T09:15:50.117Z,11.53
2023-01-22T09:18:17.539Z,11.20
2023-01-22T09:20:45.805Z,11.23
2023-01-22T09:23:15.421Z,11.80
2023-01-22T09:25:43.095Z,11.00
2023-01-22T09:28:12.230Z,16.20
2023-01-22T09:30:41.667Z,13.60
2023-01-22T09:33:10.700Z,11.63
2023-01-22T09:35:38.120Z,10.93
2023-01-22T09:38:06.181Z,10.80
2023-01-22T09:40:37.422Z,11.10
2023-01-22T09:43:05.853Z,10.80
2023-01-22T09:45:34.305Z,11.07
2023-01-22T09:48:02.883Z,11.00
2023-01-22T09:50:33.552Z,11.27
2023-01-22T09:53:03.233Z,10.27
2023-01-22T09:55:31.416Z,11.27
2023-01-22T09:58:02.144Z,11.20
2023-01-22T10:00:32.427Z,11.90
2023-01-22T10:03:03.271Z,11.10
2023-01-22T10:05:33.950Z,9.97
2023-01-22T10:08:05.808Z,10.13
2023-01-22T10:10:33.826Z,10.77
2023-01-22T10:13:11.182Z,10.10
2023-01-22T10:15:38.909Z,10.63
2023-01-22T10:18:13.500Z,10.20
2023-01-22T10:20:42.790Z,10.43
2023-01-22T10:23:17.377Z,10.90
2023-01-22T10:25:44.855Z,9.67
2023-01-22T10:28:12.408Z,9.90
2023-01-22T10:30:46.388Z,10.40
2023-01-22T10:33:16.894Z,10.30
2023-01-22T10:35:47.503Z,9.37
2023-01-22T10:38:22.776Z,9.27
2023-01-22T10:40:53.363Z,10.03
2023-01-22T10:43:21.020Z,8.90
2023-01-22T10:45:51.911Z,9.03
2023-01-22T10:48:20.008Z,9.03
2023-01-22T10:51:00.054Z,9.20
2023-01-22T10:53:31.664Z,8.70
2023-01-22T10:56:00.848Z,8.70
2023-01-22T10:58:30.972Z,9.00
2023-01-22T11:01:00.281Z,8.30
2023-01-22T11:03:32.685Z,8.77
2023-01-22T11:06:03.771Z,8.80
2023-01-22T11:08:45.430Z,9.43
2023-01-22T11:11:14.422Z,8.40
2023-01-22T11:13:45.369Z,8.90
2023-01-22T11:16:16.203Z,8.90
2023-01-22T11:18:44.577Z,8.90
2023-01-22T11:21:14.434Z,8.93
2023-01-22T11:23:46.046Z,8.73
2023-01-22T11:26:16.672Z,8.37
2023-01-22T11:28:49.130Z,9.57
2023-01-22T11:31:32.335Z,8.90
2023-01-22T11:34:08.857Z,8.20
2023-01-22T11:36:41.272Z,8.47
2023-01-22T11:39:12.767Z,8.47
2023-01-22T11:41:47.683Z,6.87
2023-01-22T11:44:33.066Z,8.33
2023-01-22T11:47:15.435Z,7.70
2023-01-22T11:49:49.959Z,8.00
2023-01-22T11:52:27.876Z,7.73
2023-01-22T11:55:03.859Z,8.13
2023-01-22T11:57:33.790Z,8.33
2023-01-22T12:00:17.862Z,7.83
2023-01-22T12:03:04.238Z,7.73
2023-01-22T12:05:38.069Z,7.93
2023-01-22T12:08:18.091Z,7.40
2023-01-22T12:10:54.793Z,7.50
2023-01-22T12:13:30.165Z,7.63
2023-01-22T12:16:05.433Z,7.60
2023-01-22T12:18:50.737Z,7.13
2023-01-22T12:21:26.228Z,7.67
2023-01-22T12:23:57.885Z,8.00
2023-01-22T12:26:27.166Z,7.87
2023-01-22T12:28:57.383Z,7.37
2023-01-22T12:31:27.829Z,7.30
2023-01-22T12:33:55.394Z,7.57
2023-01-22T12:36:23.912Z,7.07
2023-01-22T12:38:54.465Z,7.70
2023-01-22T12:41:28.438Z,7.30
2023-01-22T12:43:57.434Z,6.60
2023-01-22T12:46:30.732Z,6.67
2023-01-22T12:49:04.654Z,6.87
2023-01-22T12:51:40.552Z,6.53
2023-01-22T12:54:18.399Z,6.73
2023-01-22T12:56:47.529Z,7.00
2023-01-22T12:59:30.741Z,6.83
2023-01-22T13:02:02.177Z,6.90
2023-01-22T13:04:30.307Z,6.90
2023-01-22T13:07:04.800Z,6.57
2023-01-22T13:09:36.749Z,7.27
2023-01-22T13:12:25.325Z,6.97
2023-01-22T13:14:52.821Z,6.63
2023-01-22T13:17:21.534Z,7.27
2023-01-22T13:19:51.226Z,6.67
2023-01-22T13:22:20.279Z,7.50
2023-01-22T13:24:50.749Z,6.53
2023-01-22T13:27:29.751Z,6.17
2023-01-22T13:30:07.733Z,6.00
2023-01-22T13:32:35.259Z,6.40
2023-01-22T13:35:03.760Z,5.90
2023-01-22T13:37:31.585Z,6.20
2023-01-22T13:39:59.039Z,8.30
2023-01-22T13:42:29.444Z,8.87
2023-01-22T13:44:57.625Z,5.27
2023-01-22T13:47:27.569Z,5.97
2023-01-22T13:49:55.080Z,5.30
2023-01-22T13:52:22.906Z,5.90
2023-01-22T13:54:55.305Z,6.43
2023-01-22T13:57:23.219Z,7.90
2023-01-22T13:59:56.316Z,6.73
2023-01-22T14:02:24.677Z,6.00
2023-01-22T14:04:52.194Z,5.73
2023-01-22T14:07:27.156Z,5.97
2023-01-22T14:09:55.143Z,6.50
2023-01-22T14:12:24.198Z,6.13
2023-01-22T14:14:51.963Z,5.80
2023-01-22T14:17:25.863Z,5.93
2023-01-22T14:19:53.815Z,6.37
2023-01-22T14:22:21.251Z,5.87
2023-01-22T14:24:52.373Z,5.80
2023-01-22T14:27:20.182Z,6.67
2023-01-22T14:29:47.688Z,5.90
2023-01-22T14:32:15.172Z,6.57
2023-01-22T14:34:44.067Z,6.30
2023-01-22T14:37:15.397Z,5.97
2023-01-22T14:39:43.001Z,6.50
2023-01-22T14:42:10.425Z,7.20
2023-01-22T14:44:37.916Z,6.93
2023-01-22T14:47:05.455Z,6.13
2023-01-22T14:49:33.006Z,6.03
2023-01-22T14:52:02.162Z,6.20
2023-01-22T14:54:29.595Z,6.33
2023-01-22T14:56:58.255Z,6.27
2023-01-22T14:59:25.767Z,5.87
2023-01-22T15:01:53.274Z,6.30
2023-01-22T15:04:20.797Z,6.40
2023-01-22T15:06:48.344Z,6.40
2023-01-22T15:09:17.148Z,6.93
2023-01-22T15:11:44.683Z,6.70
2023-01-22T15:14:12.229Z,6.97
2023-01-22T15:16:40.645Z,6.60
2023-01-22T15:19:08.186Z,7.13
2023-01-22T15:21:35.676Z,6.40
2023-01-22T15:24:03.208Z,6.67
2023-01-22T15:26:35.244Z,6.20
2023-01-22T15:29:03.263Z,7.00
2023-01-22T15:31:30.942Z,6.20
2023-01-22T15:34:00.538Z,6.63
2023-01-22T15:36:28.616Z,6.37
2023-01-22T15:38:56.098Z,7.03
2023-01-22T15:41:24.526Z,6.87
2023-01-22T15:43:54.091Z,6.50
2023-01-22T15:46:22.721Z,6.33
2023-01-22T15:48:50.291Z,7.33
2023-01-22T15:51:18.163Z,7.13
2023-01-22T15:53:48.593Z,6.93
2023-01-22T15:56:16.026Z,6.87
2023-01-22T15:58:43.491Z,7.63
2023-01-22T16:01:12.278Z,6.87
2023-01-22T16:03:39.743Z,6.37
2023-01-22T16:06:10.483Z,6.60
2023-01-22T16:08:37.973Z,7.03
2023-01-22T16:11:05.672Z,6.90
2023-01-22T16:13:33.367Z,7.77
2023-01-22T16:16:01.521Z,6.50
2023-01-22T16:18:32.420Z,7.40
2023-01-22T16:21:01.087Z,11.73
2023-01-22T16:23:28.791Z,38.17
2023-01-22T16:25:56.584Z,42.03
2023-01-22T16:28:24.102Z,16.13
2023-01-22T16:30:51.909Z,12.10
2023-01-22T16:33:20.859Z,12.97
2023-01-22T16:35:49.947Z,11.37
2023-01-22T16:38:17.376Z,9.83
2023-01-22T16:40:44.987Z,7.93
2023-01-22T16:43:12.411Z,13.40
2023-01-22T16:45:40.925Z,12.70
2023-01-22T16:48:08.434Z,11.00
2023-01-22T16:50:35.911Z,10.30
2023-01-22T16:53:04.738Z,9.23
2023-01-22T16:55:32.238Z,8.67
2023-01-22T16:58:00.813Z,15.33
2023-01-22T17:00:28.417Z,14.77
2023-01-22T17:02:55.935Z,12.10
2023-01-22T17:05:23.417Z,10.27
2023-01-22T17:07:50.888Z,10.93
2023-01-22T17:10:20.203Z,10.00
2023-01-22T17:12:47.910Z,10.93
2023-01-22T17:15:15.373Z,11.03
2023-01-22T17:17:42.797Z,10.90
2023-01-22T17:20:10.884Z,8.53
2023-01-22T17:22:38.318Z,8.40
2023-01-22T17:25:06.178Z,8.57
2023-01-22T17:27:36.136Z,7.93
2023-01-22T17:30:05.628Z,10.00
2023-01-22T17:32:33.097Z,11.67
2023-01-22T17:35:00.597Z,10.03
2023-01-22T17:37:28.523Z,8.70
2023-01-22T17:39:55.973Z,11.40
2023-01-22T17:42:23.640Z,11.07
2023-01-22T17:44:52.452Z,10.70
2023-01-22T17:47:19.983Z,9.27
2023-01-22T17:49:49.015Z,15.50
2023-01-22T17:52:17.780Z,10.80
2023-01-22T17:54:45.292Z,9.67
2023-01-22T17:57:12.822Z,9.03
2023-01-22T17:59:40.312Z,8.73
2023-01-22T18:02:10.727Z,8.53
2023-01-22T18:04:38.195Z,8.77
2023-01-22T18:07:05.914Z,8.43
2023-01-22T18:09:33.368Z,9.20
2023-01-22T18:12:02.704Z,9.20
2023-01-22T18:14:33.913Z,12.63
2023-01-22T18:17:02.109Z,17.20
2023-01-22T18:19:30.911Z,11.80
2023-01-22T18:21:58.492Z,9.53
2023-01-22T18:24:26.726Z,8.77
2023-01-22T18:26:54.848Z,9.57
2023-01-22T18:29:22.312Z,10.47
2023-01-22T18:31:49.793Z,17.13
2023-01-22T18:34:17.306Z,18.13
2023-01-22T18:36:46.230Z,12.27
2023-01-22T18:39:15.498Z,11.90
2023-01-22T18:41:43.811Z,13.47
2023-01-22T18:44:12.977Z,19.23
2023-01-22T18:46:42.436Z,12.00
2023-01-22T18:49:11.939Z,11.83
2023-01-22T18:51:40.256Z,11.07
2023-01-22T18:54:09.182Z,13.73
2023-01-22T18:56:36.774Z,10.23
2023-01-22T18:59:05.702Z,15.33
2023-01-22T19:01:34.369Z,14.03
2023-01-22T19:04:03.158Z,18.00
2023-01-22T19:06:32.001Z,12.47
2023-01-22T19:09:02.483Z,21.37
2023-01-22T19:11:32.720Z,15.47
2023-01-22T19:14:00.668Z,12.77
2023-01-22T19:16:28.600Z,13.73
2023-01-22T19:18:56.491Z,11.83
2023-01-22T19:21:24.606Z,12.40
2023-01-22T19:23:53.234Z,20.00
2023-01-22T19:26:22.227Z,17.77
2023-01-22T19:28:53.131Z,12.80
2023-01-22T19:31:21.478Z,19.97
2023-01-22T19:33:50.538Z,19.70
2023-01-22T19:36:18.187Z,23.03
2023-01-22T19:38:46.053Z,46.03
2023-01-22T19:41:13.538Z,22.33
2023-01-22T19:43:41.923Z,17.93
2023-01-22T19:46:11.921Z,10.77
2023-01-22T19:48:40.086Z,9.80
2023-01-22T19:51:08.705Z,9.00
2023-01-22T19:53:36.207Z,9.73
2023-01-22T19:56:04.399Z,9.73
2023-01-22T19:58:31.962Z,9.77
2023-01-22T20:00:59.450Z,8.90
2023-01-22T20:03:28.296Z,9.53
2023-01-22T20:05:55.776Z,8.43
2023-01-22T20:08:23.246Z,9.00
2023-01-22T20:10:58.612Z,9.30
2023-01-22T20:13:26.207Z,8.47
2023-01-22T20:15:53.851Z,8.47
2023-01-22T20:18:21.370Z,8.53
2023-01-22T20:20:54.080Z,8.80
2023-01-22T20:23:21.586Z,8.30
2023-01-22T20:25:49.284Z,8.43
2023-01-22T20:28:17.401Z,8.47
2023-01-22T20:30:45.592Z,7.70
2023-01-22T20:33:13.142Z,8.53
2023-01-22T20:35:41.389Z,8.00
2023-01-22T20:38:10.654Z,7.87
2023-01-22T20:40:41.928Z,8.93
2023-01-22T20:43:09.364Z,8.37
2023-01-22T20:45:36.804Z,8.80
2023-01-22T20:48:04.632Z,8.10
2023-01-22T20:50:32.100Z,8.67
2023-01-22T20:52:59.568Z,8.30
2023-01-22T20:55:28.387Z,8.40
2023-01-22T20:57:55.904Z,9.00
2023-01-22T21:00:23.986Z,8.83
2023-01-22T21:02:51.477Z,8.87
2023-01-22T21:05:19.149Z,8.43
2023-01-22T21:07:46.950Z,8.47
2023-01-22T21:10:14.606Z,8.50
2023-01-22T21:12:44.643Z,9.00
2023-01-22T21:15:13.658Z,8.73
2023-01-22T21:17:41.205Z,8.40
2023-01-22T21:20:09.836Z,8.77
2023-01-22T21:22:37.315Z,8.10
2023-01-22T21:25:05.020Z,8.03
2023-01-22T21:27:32.445Z,8.13
2023-01-22T21:30:02.122Z,8.27
2023-01-22T21:32:31.262Z,8.20
2023-01-22T21:34:58.734Z,8.43
2023-01-22T21:37:26.206Z,8.37
2023-01-22T21:39:53.655Z,8.17
2023-01-22T21:42:38.450Z,8.03
2023-01-22T21:45:25.767Z,8.30
2023-01-22T21:47:53.259Z,7.77
2023-01-22T21:50:20.960Z,8.37
2023-01-22T21:52:53.043Z,9.13
2023-01-22T21:55:21.115Z,8.97
2023-01-22T21:57:48.904Z,9.53
2023-01-22T22:00:19.557Z,9.37
2023-01-22T22:02:47.240Z,9.27
2023-01-22T22:05:14.728Z,9.53
2023-01-22T22:07:42.196Z,9.83
2023-01-22T22:10:12.535Z,9.27
2023-01-22T22:12:39.998Z,8.77
2023-01-22T22:15:09.770Z,9.57
2023-01-22T22:17:38.713Z,10.20
2023-01-22T22:20:06.962Z,10.03
2023-01-22T22:22:34.406Z,10.40
2023-01-22T22:25:02.089Z,10.17
2023-01-22T22:27:29.738Z,9.47
2023-01-22T22:29:57.173Z,9.40
2023-01-22T22:32:24.653Z,9.50
2023-01-22T22:34:53.460Z,10.03
2023-01-22T22:37:20.880Z,10.93
2023-01-22T22:39:48.356Z,10.37
2023-01-22T22:42:15.782Z,9.47
2023-01-22T22:44:43.280Z,10.10
2023-01-22T22:47:10.771Z,10.13
2023-01-22T22:49:38.222Z,9.30
2023-01-22T22:52:07.021Z,9.50
2023-01-22T22:54:34.448Z,9.33
2023-01-22T22:57:02.116Z,9.20
2023-01-22T22:59:29.580Z,9.43
2023-01-22T23:01:57.373Z,9.47
2023-01-22T23:04:25.191Z,9.60
2023-01-22T23:06:52.884Z,9.77
2023-01-22T23:09:21.965Z,9.60
2023-01-22T23:11:51.555Z,9.70
2023-01-22T23:14:19.085Z,10.10
2023-01-22T23:16:47.665Z,10.60
2023-01-22T23:19:17.037Z,9.70
2023-01-22T23:21:44.515Z,10.00
2023-01-22T23:24:13.983Z,9.93
2023-01-22T23:26:43.673Z,11.20
2023-01-22T23:29:12.337Z,9.63
2023-01-22T23:31:40.173Z,9.97
2023-01-22T23:34:08.562Z,11.10
2023-01-22T23:36:35.986Z,10.30
2023-01-22T23:39:04.037Z,11.03
2023-01-22T23:41:31.506Z,11.43
2023-01-22T23:44:00.327Z,10.50
2023-01-22T23:46:29.227Z,10.43
2023-01-22T23:48:57.257Z,9.90
2023-01-22T23:51:24.918Z,10.77
2023-01-22T23:53:53.024Z,11.30
2023-01-22T23:56:21.003Z,10.47
2023-01-22T23:58:48.499Z,10.37
